Time;durP1;ratioP1;P1;durP2;ratioP2;P2;SDS_P1;SDS_P2;PMS_P1;PMS_P2;Temp;Humidity;BMP_temperature;BMP_pressure;BME280_temperature;BME280_humidity;BME280_pressure;Samples;Min_cycle;Max_cycle;Signal;HPM_P1;HPM_P2
2022/01/01 00:01:30;;;;;;;226.90;128.10;;;;;;;5.92;100.00;94853.13;5136461;27;20039;-76
2022/01/01 00:03:56;;;;;;;207.88;118.30;;;;;;;5.93;100.00;94851.94;5135498;27;20425;-73
2022/01/01 00:06:21;;;;;;;197.93;114.60;;;;;;;5.72;100.00;94856.22;5136670;27;20037;-72
2022/01/01 00:08:47;;;;;;;200.18;117.25;;;;;;;5.73;100.00;94849.66;5135488;27;20091;-70
2022/01/01 00:11:13;;;;;;;203.10;115.90;;;;;;;5.79;100.00;94840.97;5136523;27;20027;-72
2022/01/01 00:13:39;;;;;;;203.40;116.25;;;;;;;5.82;100.00;94843.53;5136167;27;20460;-70
2022/01/01 00:16:09;;;;;;;210.27;118.10;;;;;;;5.62;100.00;94840.47;5136253;27;20112;-71
2022/01/01 00:18:37;;;;;;;218.75;117.18;;;;;;;5.35;100.00;94837.28;5136124;27;20047;-71
2022/01/01 00:21:05;;;;;;;208.80;118.93;;;;;;;5.16;100.00;94843.81;5136310;27;20400;-72
2022/01/01 00:23:30;;;;;;;210.52;117.80;;;;;;;5.20;100.00;94839.03;5135964;27;20038;-74
2022/01/01 00:25:56;;;;;;;222.70;121.90;;;;;;;5.35;100.00;94833.84;5135893;27;20027;-72
2022/01/01 00:28:21;;;;;;;228.45;125.18;;;;;;;5.44;100.00;94835.81;5136027;27;20361;-72
2022/01/01 00:30:47;;;;;;;222.20;124.45;;;;;;;5.29;100.00;94844.47;5135749;27;20023;-71
2022/01/01 00:33:12;;;;;;;222.93;123.90;;;;;;;5.74;100.00;94842.34;5136072;27;20179;-75
2022/01/01 00:35:40;;;;;;;236.98;125.18;;;;;;;5.34;100.00;94837.72;5134881;27;20030;-69
2022/01/01 00:38:06;;;;;;;227.55;125.88;;;;;;;5.46;100.00;94834.19;5136139;27;20041;-71
2022/01/01 00:40:31;;;;;;;234.60;127.30;;;;;;;5.18;100.00;94838.72;5136666;27;20027;-74
2022/01/01 00:42:57;;;;;;;257.77;138.52;;;;;;;4.76;100.00;94839.91;5142132;27;20026;-69
2022/01/01 00:45:23;;;;;;;253.57;137.10;;;;;;;4.83;100.00;94839.63;5137986;27;20364;-75
2022/01/01 00:47:49;;;;;;;236.32;127.38;;;;;;;4.95;100.00;94840.72;5136615;27;20324;-70
2022/01/01 00:50:14;;;;;;;217.80;123.53;;;;;;;4.70;100.00;94834.34;5134644;27;20095;-69
2022/01/01 00:52:42;;;;;;;213.55;118.85;;;;;;;4.47;100.00;94824.78;5135487;27;20019;-70
2022/01/01 00:55:08;;;;;;;233.18;123.65;;;;;;;4.73;100.00;94825.38;5135922;27;20027;-71
2022/01/01 00:57:33;;;;;;;216.18;120.60;;;;;;;4.62;100.00;94819.66;5134280;27;20109;-71
2022/01/01 01:00:01;;;;;;;236.65;129.50;;;;;;;4.60;100.00;94813.97;5135314;27;20038;-71
2022/01/01 01:02:26;;;;;;;228.30;127.13;;;;;;;4.86;100.00;94817.22;5135282;27;20038;-69
2022/01/01 01:04:52;;;;;;;218.25;122.40;;;;;;;4.89;100.00;94805.59;5135463;27;20027;-70
2022/01/01 01:07:17;;;;;;;237.75;124.75;;;;;;;4.75;100.00;94806.13;5135245;27;20391;-70
2022/01/01 01:09:42;;;;;;;216.75;120.72;;;;;;;4.78;100.00;94799.13;5135152;27;20023;-70
2022/01/01 01:12:08;;;;;;;230.23;125.30;;;;;;;4.87;100.00;94794.53;5135177;27;20095;-70
2022/01/01 01:14:40;;;;;;;220.73;122.95;;;;;;;4.84;100.00;94786.56;5135603;27;20494;-70
2022/01/01 01:17:06;;;;;;;208.65;119.88;;;;;;;4.87;100.00;94801.84;5135209;27;20030;-70
2022/01/01 01:19:33;;;;;;;209.07;114.68;;;;;;;4.63;100.00;94785.44;5135005;27;20038;-70
2022/01/01 01:21:58;;;;;;;202.73;112.90;;;;;;;4.89;100.00;94800.22;5134969;27;20031;-70
2022/01/01 01:24:25;;;;;;;205.82;111.95;;;;;;;4.82;100.00;94799.72;5135225;27;20165;-70
2022/01/01 01:26:52;;;;;;;204.45;109.40;;;;;;;4.50;100.00;94797.03;5134975;27;20027;-70
2022/01/01 01:29:19;;;;;;;208.77;111.78;;;;;;;4.77;100.00;94803.00;5135280;27;20058;-70
2022/01/01 01:31:46;;;;;;;201.48;111.93;;;;;;;4.77;100.00;94819.84;5135522;27;20053;-70
2022/01/01 01:34:11;;;;;;;196.18;111.35;;;;;;;4.42;100.00;94817.28;5137165;27;20027;-70
2022/01/01 01:36:38;;;;;;;201.88;111.13;;;;;;;4.59;100.00;94822.47;5136085;27;20042;-70
2022/01/01 01:39:04;;;;;;;194.63;109.05;;;;;;;4.82;100.00;94832.75;5134875;27;20015;-69
2022/01/01 01:41:31;;;;;;;193.23;104.50;;;;;;;4.47;100.00;94829.41;5134526;27;20056;-69
2022/01/01 01:43:58;;;;;;;183.73;103.38;;;;;;;4.45;100.00;94829.84;5134680;27;20121;-69
2022/01/01 01:46:25;;;;;;;177.70;101.28;;;;;;;4.70;100.00;94825.50;5133514;27;20372;-69
2022/01/01 01:48:51;;;;;;;178.85;100.22;;;;;;;4.59;100.00;94825.16;5134570;27;20027;-70
2022/01/01 01:51:17;;;;;;;177.63;99.68;;;;;;;4.36;100.00;94821.72;5134387;27;20033;-70
2022/01/01 01:53:42;;;;;;;173.65;93.82;;;;;;;4.37;100.00;94817.84;5134391;27;20103;-70
2022/01/01 01:56:08;;;;;;;168.15;94.43;;;;;;;4.38;100.00;94822.03;5134157;27;20104;-69
2022/01/01 01:58:34;;;;;;;160.77;89.57;;;;;;;4.59;100.00;94814.41;5134875;27;20421;-70
2022/01/01 02:01:20;;;;;;;147.93;81.72;;;;;;;4.60;100.00;94805.16;5134821;27;20019;-70
2022/01/01 02:03:47;;;;;;;149.55;81.95;;;;;;;4.49;100.00;94803.59;5134434;27;20088;-70
2022/01/01 02:06:14;;;;;;;148.05;82.70;;;;;;;4.09;100.00;94796.19;5134207;27;20034;-70
2022/01/01 02:08:40;;;;;;;150.07;83.57;;;;;;;4.26;100.00;94798.69;5133199;27;20031;-69
2022/01/01 02:11:06;;;;;;;140.02;78.82;;;;;;;4.40;100.00;94787.41;5134056;27;20038;-69
2022/01/01 02:14:21;;;;;;;134.13;76.65;;;;;;;4.37;100.00;94782.91;5134505;27;20034;-69
2022/01/01 02:18:48;;;;;;;151.60;76.95;;;;;;;4.36;100.00;94798.31;5134669;27;20031;-69
2022/01/01 02:21:14;;;;;;;137.55;73.93;;;;;;;4.44;100.00;94792.66;5134344;27;20033;-69
2022/01/01 02:23:46;;;;;;;137.35;73.55;;;;;;;4.40;100.00;94790.09;5134054;27;20459;-69
2022/01/01 02:26:15;;;;;;;135.48;72.95;;;;;;;4.42;100.00;94784.28;5134361;27;20051;-69
2022/01/01 02:28:42;;;;;;;131.38;72.70;;;;;;;4.53;100.00;94793.47;5134839;27;20027;-68
2022/01/01 02:31:08;;;;;;;128.23;70.35;;;;;;;4.47;100.00;94792.53;5136073;27;20115;-68
2022/01/01 02:33:34;;;;;;;122.57;71.07;;;;;;;4.26;100.00;94788.66;5142095;27;20370;-70
2022/01/01 02:36:00;;;;;;;117.00;68.25;;;;;;;4.14;100.00;94790.22;5152830;27;20044;-68
2022/01/01 02:38:26;;;;;;;123.47;70.70;;;;;;;4.22;100.00;94783.41;5153375;27;20031;-70
2022/01/01 02:40:51;;;;;;;122.40;70.43;;;;;;;4.22;100.00;94791.47;5154549;27;20021;-68
2022/01/01 02:43:18;;;;;;;131.10;70.57;;;;;;;3.98;100.00;94788.50;5154211;27;20023;-69
2022/01/01 02:45:43;;;;;;;117.13;65.85;;;;;;;3.99;100.00;94781.16;5146462;27;20027;-70
2022/01/01 02:48:09;;;;;;;115.75;65.82;;;;;;;4.04;100.00;94783.31;5151445;27;20056;-69
2022/01/01 02:50:34;;;;;;;121.53;65.38;;;;;;;4.26;100.00;94782.56;5149307;27;20492;-69
2022/01/01 02:53:00;;;;;;;107.60;61.85;;;;;;;4.30;100.00;94777.81;5142896;27;20027;-69
2022/01/01 02:55:25;;;;;;;123.28;63.63;;;;;;;4.29;100.00;94771.66;5153041;27;20031;-68
2022/01/01 02:57:51;;;;;;;119.40;59.75;;;;;;;3.91;100.00;94771.88;5153346;27;20038;-68
2022/01/01 03:00:17;;;;;;;107.68;59.83;;;;;;;4.22;100.00;94764.59;5153214;28;20031;-68
2022/01/01 03:02:45;;;;;;;107.15;55.88;;;;;;;4.05;100.00;94769.44;5154206;27;20038;-69
2022/01/01 03:05:10;;;;;;;101.03;56.60;;;;;;;3.91;100.00;94758.44;5153261;27;20026;-68
2022/01/01 03:07:36;;;;;;;99.30;53.58;;;;;;;4.02;100.00;94758.81;5150889;27;20038;-69
2022/01/01 03:10:03;;;;;;;97.30;53.53;;;;;;;4.10;100.00;94743.19;5146249;27;20160;-68
2022/01/01 03:12:29;;;;;;;96.70;53.90;;;;;;;3.89;100.00;94751.56;5146894;27;20023;-69
2022/01/01 03:14:54;;;;;;;133.82;59.80;;;;;;;3.55;100.00;94745.03;5153379;27;20058;-69
2022/01/01 03:17:20;;;;;;;119.00;57.95;;;;;;;3.64;100.00;94746.28;5157339;27;20027;-69
2022/01/01 03:19:45;;;;;;;108.95;56.88;;;;;;;3.67;100.00;94748.13;5158113;27;20027;-69
2022/01/01 03:22:10;;;;;;;105.43;54.53;;;;;;;3.99;100.00;94744.31;5153324;27;20031;-70
2022/01/01 03:24:36;;;;;;;96.25;53.08;;;;;;;4.00;100.00;94739.69;5154144;27;20076;-69
2022/01/01 03:27:02;;;;;;;102.95;56.60;;;;;;;3.98;100.00;94742.06;5156655;27;20107;-69
2022/01/01 03:29:30;;;;;;;104.20;53.17;;;;;;;4.10;100.00;94738.56;5156420;27;20035;-69
2022/01/01 03:31:56;;;;;;;95.60;52.65;;;;;;;3.89;100.00;94745.44;5151166;27;20023;-69
2022/01/01 03:34:21;;;;;;;102.65;54.30;;;;;;;3.95;100.00;94745.63;5148105;27;20034;-70
2022/01/01 03:36:47;;;;;;;99.28;53.58;;;;;;;4.07;100.00;94750.19;5155999;27;20478;-68
2022/01/01 03:39:12;;;;;;;101.22;52.92;;;;;;;3.51;100.00;94757.81;5155249;27;20095;-69
2022/01/01 03:41:38;;;;;;;100.75;55.25;;;;;;;4.09;100.00;94753.19;5153523;27;20050;-68
2022/01/01 03:44:04;;;;;;;96.47;52.13;;;;;;;4.11;100.00;94756.19;5150414;27;20034;-69
2022/01/01 03:46:29;;;;;;;100.45;53.22;;;;;;;3.97;100.00;94751.34;5149783;27;20027;-68
2022/01/01 03:48:55;;;;;;;97.93;52.30;;;;;;;4.14;100.00;94754.56;5147965;27;20027;-67
2022/01/01 03:51:20;;;;;;;88.60;49.97;;;;;;;4.15;100.00;94759.50;5147784;27;20425;-68
2022/01/01 03:53:46;;;;;;;88.82;48.40;;;;;;;4.29;100.00;94765.56;5147154;27;20102;-68
2022/01/01 03:56:11;;;;;;;85.78;47.28;;;;;;;4.21;100.00;94755.06;5142641;27;20050;-69
2022/01/01 03:58:38;;;;;;;90.60;49.05;;;;;;;4.20;100.00;94750.88;5138150;27;20065;-68
2022/01/01 04:01:03;;;;;;;89.85;49.10;;;;;;;3.82;100.00;94735.69;5137120;27;20354;-68
2022/01/01 04:03:29;;;;;;;91.95;49.67;;;;;;;3.83;100.00;94726.47;5136533;27;20037;-69
2022/01/01 04:05:54;;;;;;;83.30;45.97;;;;;;;4.01;100.00;94731.22;5136480;27;20151;-68
2022/01/01 04:08:19;;;;;;;89.07;47.03;;;;;;;4.08;100.00;94719.47;5136445;27;20451;-69
2022/01/01 04:10:45;;;;;;;84.25;46.67;;;;;;;4.08;100.00;94722.16;5137107;27;20023;-69
2022/01/01 04:13:11;;;;;;;84.47;46.50;;;;;;;4.32;100.00;94721.66;5136331;27;20039;-68
2022/01/01 04:15:38;;;;;;;84.97;46.03;;;;;;;4.10;100.00;94711.69;5136943;27;20406;-69
2022/01/01 04:18:11;;;;;;;92.50;48.83;;;;;;;4.27;100.00;94714.19;5139660;27;20060;-68
2022/01/01 04:20:37;;;;;;;86.43;46.22;;;;;;;4.21;100.00;94714.78;5147804;27;20034;-69
2022/01/01 04:23:08;;;;;;;87.70;47.45;;;;;;;3.88;100.00;94709.78;5135744;27;20030;-69
2022/01/01 04:25:34;;;;;;;89.10;45.58;;;;;;;3.94;100.00;94703.84;5136465;27;20417;-68
2022/01/01 04:27:59;;;;;;;89.15;46.30;;;;;;;3.94;100.00;94693.09;5135015;27;20023;-68
2022/01/01 04:30:28;;;;;;;86.80;46.58;;;;;;;3.75;100.00;94698.38;5135987;27;20030;-68
2022/01/01 04:32:54;;;;;;;83.43;43.90;;;;;;;3.85;100.00;94707.22;5134951;27;20027;-68
2022/01/01 04:35:19;;;;;;;88.45;46.00;;;;;;;3.99;100.00;94709.41;5136067;27;20027;-69
2022/01/01 04:37:45;;;;;;;84.88;45.28;;;;;;;4.05;100.00;94706.91;5136349;27;20023;-69
2022/01/01 04:40:10;;;;;;;83.93;45.88;;;;;;;3.89;100.00;94700.53;5136209;27;20110;-69
2022/01/01 04:42:36;;;;;;;79.65;42.90;;;;;;;3.94;100.00;94704.63;5135785;27;20050;-69
2022/01/01 04:45:02;;;;;;;87.78;45.40;;;;;;;4.04;100.00;94708.09;5136114;27;20105;-69
2022/01/01 04:47:28;;;;;;;99.20;51.75;;;;;;;3.91;100.00;94693.97;5135665;27;20038;-69
2022/01/01 04:49:54;;;;;;;97.95;50.75;;;;;;;3.73;100.00;94690.72;5135678;27;20045;-70
2022/01/01 04:52:19;;;;;;;92.47;49.28;;;;;;;3.62;100.00;94686.94;5135957;27;20015;-68
2022/01/01 04:54:45;;;;;;;86.30;47.28;;;;;;;3.85;100.00;94702.59;5135480;27;20375;-68
2022/01/01 04:57:12;;;;;;;77.63;43.30;;;;;;;4.11;100.00;94702.47;5135260;27;20051;-69
2022/01/01 04:59:39;;;;;;;84.00;43.55;;;;;;;3.93;100.00;94696.97;5135584;27;20035;-69
2022/01/01 05:02:05;;;;;;;80.38;42.80;;;;;;;3.62;100.00;94676.19;5135570;27;20419;-68
2022/01/01 05:04:30;;;;;;;80.35;44.53;;;;;;;4.11;100.00;94689.03;5135475;27;20022;-69
2022/01/01 05:06:56;;;;;;;79.63;44.25;;;;;;;4.11;100.00;94686.34;5135396;27;20030;-69
2022/01/01 05:09:22;;;;;;;87.30;45.30;;;;;;;4.21;100.00;94690.59;5135176;27;20023;-69
2022/01/01 05:11:48;;;;;;;80.43;43.00;;;;;;;4.02;100.00;94700.47;5134486;27;20027;-69
2022/01/01 05:14:14;;;;;;;79.15;43.17;;;;;;;3.89;100.00;94713.97;5134158;27;20019;-69
2022/01/01 05:16:41;;;;;;;80.28;43.28;;;;;;;3.97;100.00;94724.47;5135331;27;20417;-69
2022/01/01 05:19:07;;;;;;;82.82;46.08;;;;;;;3.79;100.00;94747.31;5134949;27;20419;-69
2022/01/01 05:21:35;;;;;;;80.97;44.63;;;;;;;4.00;100.00;94742.38;5133993;27;20023;-69
2022/01/01 05:24:03;;;;;;;77.80;42.80;;;;;;;3.59;100.00;94744.91;5134891;27;20033;-69
2022/01/01 05:26:29;;;;;;;73.38;41.38;;;;;;;3.71;100.00;94744.13;5135388;27;20022;-69
2022/01/01 05:28:55;;;;;;;84.85;44.83;;;;;;;3.81;100.00;94752.25;5135009;27;20367;-69
2022/01/01 05:31:20;;;;;;;96.45;46.70;;;;;;;3.86;100.00;94751.69;5134792;27;20034;-69
2022/01/01 05:33:46;;;;;;;87.57;43.33;;;;;;;3.85;100.00;94745.56;5134720;27;20464;-69
2022/01/01 05:36:13;;;;;;;79.45;40.85;;;;;;;3.91;100.00;94747.69;5133713;27;20466;-69
2022/01/01 05:38:39;;;;;;;75.93;40.20;;;;;;;3.98;100.00;94750.88;5133701;27;20019;-69
2022/01/01 05:41:04;;;;;;;70.72;36.45;;;;;;;4.17;100.00;94757.13;5134861;27;20103;-70
2022/01/01 05:43:30;;;;;;;63.80;34.05;;;;;;;4.21;100.00;94771.19;5134620;27;20102;-69
2022/01/01 05:45:56;;;;;;;65.53;35.38;;;;;;;4.28;100.00;94777.47;5134828;27;20038;-70
2022/01/01 05:48:21;;;;;;;71.85;36.53;;;;;;;4.20;100.00;94771.63;5134505;27;20427;-69
2022/01/01 05:50:47;;;;;;;61.35;34.08;;;;;;;4.29;100.00;94777.03;5134606;27;20027;-69
2022/01/01 05:53:13;;;;;;;57.17;31.65;;;;;;;3.95;100.00;94772.50;5134491;27;20537;-70
2022/01/01 05:55:38;;;;;;;59.08;31.73;;;;;;;4.11;100.00;94753.50;5134207;27;20053;-69
2022/01/01 05:58:05;;;;;;;54.45;31.63;;;;;;;4.35;100.00;94763.78;5134643;27;20034;-68
2022/01/01 06:00:31;;;;;;;52.78;29.10;;;;;;;4.18;100.00;94747.88;5134349;27;20088;-70
2022/01/01 06:02:58;;;;;;;51.47;30.02;;;;;;;4.42;100.00;94747.41;5134207;27;20452;-69
2022/01/01 06:05:24;;;;;;;50.40;26.63;;;;;;;4.47;100.00;94744.16;5133737;27;20433;-69
2022/01/01 06:07:49;;;;;;;48.78;27.60;;;;;;;4.40;100.00;94739.03;5134255;27;20055;-69
2022/01/01 06:10:14;;;;;;;46.33;26.30;;;;;;;4.40;100.00;94744.41;5134112;27;20029;-69
2022/01/01 06:12:40;;;;;;;48.53;27.27;;;;;;;4.37;100.00;94740.66;5134447;27;20439;-69
2022/01/01 06:15:07;;;;;;;47.95;27.67;;;;;;;4.21;100.00;94740.88;5133148;27;20496;-70
2022/01/01 06:17:32;;;;;;;56.47;29.10;;;;;;;3.96;100.00;94739.09;5134275;27;20094;-70
2022/01/01 06:19:58;;;;;;;52.33;27.98;;;;;;;3.82;100.00;94746.44;5133948;27;20490;-70
2022/01/01 06:22:23;;;;;;;53.53;30.50;;;;;;;3.74;100.00;94739.81;5133998;27;20090;-69
2022/01/01 06:24:49;;;;;;;51.28;28.25;;;;;;;4.12;100.00;94736.19;5133964;27;20016;-69
2022/01/01 06:27:14;;;;;;;57.28;30.13;;;;;;;3.90;100.00;94736.22;5134158;27;20042;-70
2022/01/01 06:29:40;;;;;;;62.55;34.55;;;;;;;3.50;100.00;94740.22;5134084;27;20448;-69
2022/01/01 06:32:06;;;;;;;59.05;33.40;;;;;;;3.58;100.00;94742.69;5133875;27;20030;-69
2022/01/01 06:34:31;;;;;;;60.90;33.00;;;;;;;3.87;100.00;94737.06;5134107;27;20373;-69
2022/01/01 06:36:57;;;;;;;58.92;34.67;;;;;;;3.94;100.00;94749.50;5134282;27;20038;-69
2022/01/01 06:39:22;;;;;;;66.95;34.40;;;;;;;4.05;100.00;94752.56;5133796;27;20026;-70
2022/01/01 06:41:48;;;;;;;65.72;34.10;;;;;;;3.70;100.00;94758.72;5133831;27;20106;-70
2022/01/01 06:44:13;;;;;;;61.33;33.50;;;;;;;4.30;100.00;94757.03;5133777;27;20019;-70
2022/01/01 06:46:39;;;;;;;68.28;37.15;;;;;;;4.55;100.00;94772.28;5136924;27;20029;-69
2022/01/01 06:49:04;;;;;;;63.53;36.03;;;;;;;4.17;100.00;94767.13;5137801;27;20115;-69
2022/01/01 06:51:32;;;;;;;67.95;34.65;;;;;;;4.03;100.00;94771.06;5138330;27;20398;-69
2022/01/01 06:53:57;;;;;;;71.80;35.35;;;;;;;4.33;100.00;94771.53;5137840;27;20029;-69
2022/01/01 06:56:23;;;;;;;69.43;36.40;;;;;;;4.49;100.00;94770.59;5137542;27;20122;-68
2022/01/01 06:58:48;;;;;;;68.57;37.97;;;;;;;4.14;100.00;94784.84;5138040;27;20065;-69
2022/01/01 07:01:14;;;;;;;64.55;34.50;;;;;;;4.02;100.00;94780.28;5137459;27;20019;-69
2022/01/01 07:03:39;;;;;;;59.35;33.63;;;;;;;4.08;100.00;94778.56;5137391;27;20451;-69
2022/01/01 07:06:05;;;;;;;65.07;36.58;;;;;;;4.04;100.00;94767.19;5137616;27;20023;-69
2022/01/01 07:08:30;;;;;;;64.10;35.63;;;;;;;4.12;100.00;94771.13;5137543;27;20023;-69
2022/01/01 07:10:56;;;;;;;68.13;36.80;;;;;;;4.30;100.00;94773.16;5137915;27;20019;-69
2022/01/01 07:13:21;;;;;;;63.65;33.75;;;;;;;4.64;100.00;94778.88;5137378;27;20455;-69
2022/01/01 07:15:47;;;;;;;64.05;35.45;;;;;;;4.77;100.00;94781.47;5137365;27;20058;-69
2022/01/01 07:18:12;;;;;;;62.20;34.03;;;;;;;5.03;100.00;94788.16;5137501;27;20023;-70
2022/01/01 07:20:38;;;;;;;54.35;31.60;;;;;;;5.29;100.00;94796.00;5137194;27;20064;-69
2022/01/01 07:23:03;;;;;;;64.07;36.75;;;;;;;5.12;100.00;94790.13;5137178;27;20027;-69
2022/01/01 07:25:29;;;;;;;61.72;34.53;;;;;;;5.34;100.00;94800.06;5137542;27;20154;-68
2022/01/01 07:27:55;;;;;;;60.00;34.30;;;;;;;5.66;100.00;94792.63;5137068;27;20030;-68
2022/01/01 07:30:21;;;;;;;64.88;35.85;;;;;;;5.51;100.00;94792.47;5136950;27;20436;-68
2022/01/01 07:32:48;;;;;;;62.30;35.35;;;;;;;6.00;100.00;94783.56;5136940;27;20052;-68
2022/01/01 07:35:15;;;;;;;56.65;34.65;;;;;;;6.42;100.00;94791.00;5136962;27;20115;-69
2022/01/01 07:37:41;;;;;;;58.90;34.50;;;;;;;7.05;100.00;94790.50;5136869;27;20173;-69
2022/01/01 07:40:08;;;;;;;59.13;34.33;;;;;;;7.21;100.00;94794.78;5137353;27;20068;-68
2022/01/01 07:42:34;;;;;;;54.45;33.80;;;;;;;7.87;100.00;94801.28;5135803;27;20027;-69
2022/01/01 07:45:01;;;;;;;52.50;30.90;;;;;;;8.12;100.00;94805.44;5136813;27;20038;-69
2022/01/01 07:47:27;;;;;;;54.85;32.33;;;;;;;8.32;100.00;94819.56;5136974;27;20058;-70
2022/01/01 07:49:52;;;;;;;26.77;16.08;;;;;;;9.07;100.00;94812.25;5136641;27;20482;-69
2022/01/01 07:52:18;;;;;;;38.38;23.48;;;;;;;9.72;100.00;94820.28;5135660;27;20019;-72
2022/01/01 07:54:43;;;;;;;39.63;23.73;;;;;;;10.86;100.00;94824.22;5136641;27;20023;-72
2022/01/01 07:57:09;;;;;;;14.85;9.02;;;;;;;11.00;100.00;94831.50;5136221;27;20118;-69
2022/01/01 07:59:34;;;;;;;19.70;13.20;;;;;;;11.32;100.00;94815.94;5136391;27;20428;-71
2022/01/01 08:02:00;;;;;;;7.95;5.72;;;;;;;11.32;100.00;94807.78;5136350;27;20029;-69
2022/01/01 08:04:25;;;;;;;4.57;2.97;;;;;;;11.98;100.00;94805.19;5137108;27;20110;-73
2022/01/01 08:06:51;;;;;;;7.07;2.47;;;;;;;12.59;98.97;94813.28;5136362;27;20024;-69
2022/01/01 08:09:16;;;;;;;2.72;1.58;;;;;;;12.38;82.43;94802.59;5136249;27;20451;-74
2022/01/01 08:11:42;;;;;;;4.03;1.85;;;;;;;12.84;79.18;94804.16;5137043;27;20042;-73
2022/01/01 08:14:08;;;;;;;2.55;1.50;;;;;;;12.89;75.44;94808.09;5136241;27;20020;-73
2022/01/01 08:16:34;;;;;;;2.05;1.40;;;;;;;13.15;73.41;94809.84;5136664;27;20020;-73
2022/01/01 08:18:59;;;;;;;1.77;1.30;;;;;;;12.85;70.20;94815.78;5136894;27;20092;-73
2022/01/01 08:21:25;;;;;;;2.20;1.58;;;;;;;12.63;69.54;94811.06;5136127;27;20023;-73
2022/01/01 08:23:50;;;;;;;2.25;1.58;;;;;;;12.44;70.05;94821.66;5136245;27;20455;-73
2022/01/01 08:26:16;;;;;;;3.58;1.33;;;;;;;12.31;70.26;94819.38;5136425;27;20060;-73
2022/01/01 08:28:41;;;;;;;2.72;1.80;;;;;;;12.43;69.32;94812.00;5136265;27;20409;-73
2022/01/01 08:31:07;;;;;;;2.10;1.50;;;;;;;12.41;69.78;94811.75;5135836;27;20047;-73
2022/01/01 08:33:33;;;;;;;2.25;1.50;;;;;;;12.46;69.19;94809.03;5136198;27;20073;-74
2022/01/01 08:35:58;;;;;;;2.60;1.70;;;;;;;12.61;68.58;94811.56;5136197;27;20019;-73
2022/01/01 08:38:24;;;;;;;3.50;1.63;;;;;;;12.61;68.07;94824.41;5135940;27;20045;-73
2022/01/01 08:40:50;;;;;;;2.85;1.80;;;;;;;12.59;68.54;94822.16;5135941;27;20019;-72
2022/01/01 08:43:16;;;;;;;2.38;1.45;;;;;;;12.95;67.12;94836.09;5135571;27;20360;-72
2022/01/01 08:45:41;;;;;;;2.42;1.70;;;;;;;13.53;65.65;94832.13;5134634;27;20034;-72
2022/01/01 08:48:08;;;;;;;2.83;1.63;;;;;;;13.54;65.03;94833.63;5135847;27;20106;-70
2022/01/01 08:50:34;;;;;;;2.65;1.83;;;;;;;13.50;64.24;94833.84;5135460;27;20092;-69
2022/01/01 08:52:59;;;;;;;5.10;1.98;;;;;;;13.40;64.25;94843.53;5135252;27;20023;-72
2022/01/01 08:55:25;;;;;;;2.25;1.70;;;;;;;13.21;64.83;94840.56;5135447;27;20015;-71
2022/01/01 08:57:51;;;;;;;2.05;1.65;;;;;;;13.28;64.54;94842.78;5134202;27;20047;-71
2022/01/01 09:00:17;;;;;;;2.30;1.77;;;;;;;13.30;64.01;94840.28;5135351;27;20020;-72
2022/01/01 09:02:43;;;;;;;4.20;1.90;;;;;;;13.02;65.41;94835.59;5134273;27;20478;-73
2022/01/01 09:05:09;;;;;;;3.50;1.90;;;;;;;13.33;64.46;94847.50;5135612;27;20107;-72
2022/01/01 09:07:35;;;;;;;2.72;1.88;;;;;;;13.24;64.41;94858.63;5133848;27;20015;-72
2022/01/01 09:10:03;;;;;;;2.97;1.73;;;;;;;12.97;65.74;94851.94;5134962;27;20075;-72
2022/01/01 09:12:29;;;;;;;2.15;1.73;;;;;;;13.22;64.34;94858.38;5135041;27;20102;-71
2022/01/01 09:14:56;;;;;;;2.20;1.70;;;;;;;13.53;63.97;94859.38;5134926;27;20375;-70
2022/01/01 09:17:22;;;;;;;2.50;1.83;;;;;;;13.94;61.83;94864.25;5133916;27;20407;-70
2022/01/01 09:19:48;;;;;;;3.30;1.90;;;;;;;14.95;58.89;94867.78;5134906;27;20015;-72
2022/01/01 09:22:14;;;;;;;3.15;1.90;;;;;;;15.18;58.11;94867.66;5133899;27;20106;-71
2022/01/01 09:24:39;;;;;;;4.18;2.33;;;;;;;15.25;57.50;94872.56;5134826;27;20499;-70
2022/01/01 09:27:07;;;;;;;6.03;2.72;;;;;;;15.74;56.33;94869.16;5135152;27;20046;-71
2022/01/01 09:29:33;;;;;;;5.18;2.33;;;;;;;15.81;57.84;94878.81;5134662;27;20028;-74
2022/01/01 09:32:00;;;;;;;3.42;2.00;;;;;;;16.58;54.60;94877.72;5136315;27;20033;-76
2022/01/01 09:34:26;;;;;;;2.95;2.25;;;;;;;16.16;55.90;94877.94;5134863;27;20134;-73
2022/01/01 09:36:54;;;;;;;5.70;2.50;;;;;;;16.10;56.04;94882.75;5134628;27;20030;-71
2022/01/01 09:39:20;;;;;;;3.65;2.53;;;;;;;16.14;54.11;94882.44;5134615;27;20026;-72
2022/01/01 09:41:45;;;;;;;4.38;2.60;;;;;;;16.26;54.24;94880.34;5134527;27;20022;-72
2022/01/01 09:44:13;;;;;;;2.83;2.10;;;;;;;16.37;52.78;94875.47;5134497;27;20405;-70
2022/01/01 09:46:44;;;;;;;3.25;2.20;;;;;;;15.93;54.13;94882.91;5134967;27;20042;-65
2022/01/01 09:49:13;;;;;;;3.10;2.50;;;;;;;15.43;56.65;94871.16;5134861;27;20045;-69
2022/01/01 09:51:41;;;;;;;2.63;1.95;;;;;;;14.25;57.31;94878.81;5134508;27;20088;-72
2022/01/01 09:54:07;;;;;;;3.40;2.38;;;;;;;14.32;57.12;94878.28;5134468;27;20023;-76
2022/01/01 09:56:33;;;;;;;4.05;2.28;;;;;;;14.23;58.11;94875.81;5134246;27;20039;-75
2022/01/01 09:58:58;;;;;;;2.58;2.03;;;;;;;13.59;58.59;94873.75;5133360;27;20019;-69
2022/01/01 10:01:24;;;;;;;4.07;2.40;;;;;;;13.44;59.64;94886.91;5134283;27;20443;-70
2022/01/01 10:03:52;;;;;;;5.55;2.30;;;;;;;13.23;60.58;94873.50;5133874;27;20103;-69
2022/01/01 10:06:20;;;;;;;7.97;2.30;;;;;;;13.00;60.96;94876.19;5134139;27;20448;-71
2022/01/01 10:08:56;;;;;;;3.45;2.13;;;;;;;12.53;62.64;94878.59;5134134;27;20056;-72
2022/01/01 10:11:21;;;;;;;5.28;2.55;;;;;;;12.46;63.67;94889.94;5133045;27;20015;-71
2022/01/01 10:13:47;;;;;;;4.13;2.78;;;;;;;12.38;65.20;94883.47;5134183;27;20042;-69
2022/01/01 10:16:14;;;;;;;4.35;2.65;;;;;;;12.29;66.53;94874.28;5134076;27;20030;-70
2022/01/01 10:18:45;;;;;;;4.07;2.65;;;;;;;12.16;67.94;94877.47;5133855;27;20026;-70
2022/01/01 10:21:13;;;;;;;6.10;3.47;;;;;;;12.09;70.15;94883.38;5133468;27;20019;-71
2022/01/01 10:23:42;;;;;;;5.95;3.40;;;;;;;12.34;68.82;94889.91;5134744;27;20750;-70
2022/01/01 10:29:18;;;;;;;6.00;3.40;;;;;;;13.35;65.20;94875.00;5136600;27;20034;-72
2022/01/01 10:32:03;;;;;;;4.22;3.40;;;;;;;12.88;66.57;94869.25;5136894;27;20068;-69
2022/01/01 10:34:33;;;;;;;7.78;3.78;;;;;;;12.57;68.02;94868.22;5135611;27;20102;-73
2022/01/01 10:36:59;;;;;;;9.00;3.42;;;;;;;12.83;66.87;94851.69;5134387;27;20489;-70
2022/01/01 10:39:25;;;;;;;4.97;3.10;;;;;;;12.81;65.94;94856.13;5133650;27;20455;-69
2022/01/01 10:41:54;;;;;;;6.95;3.53;;;;;;;12.85;66.85;94859.34;5132887;28;20023;-72
2022/01/01 10:44:27;;;;;;;5.85;3.50;;;;;;;12.86;66.21;94849.94;5133640;27;20494;-72
2022/01/01 10:46:53;;;;;;;7.82;3.97;;;;;;;12.97;66.56;94849.94;5132862;28;20038;-72
2022/01/01 10:52:23;;;;;;;6.70;3.92;;;;;;;12.94;65.96;94845.50;5133860;27;20027;-72
2022/01/01 10:54:54;;;;;;;5.80;3.70;;;;;;;13.13;64.61;94845.00;5132855;28;20489;-71
2022/01/01 10:57:34;;;;;;;7.97;3.97;;;;;;;13.08;64.36;94841.03;5133531;27;20047;-70
2022/01/01 11:00:24;;;;;;;6.75;3.65;;;;;;;13.14;63.67;94835.59;5133647;27;20030;-72
2022/01/01 11:02:51;;;;;;;5.60;3.28;;;;;;;12.99;62.42;94830.38;5128303;27;20039;-69
2022/01/01 11:05:29;;;;;;;3.40;2.63;;;;;;;12.96;62.73;94832.13;5133779;27;20035;-71
2022/01/01 11:07:55;;;;;;;5.60;3.15;;;;;;;12.90;63.09;94844.25;5132756;28;20022;-72
2022/01/01 11:10:21;;;;;;;4.63;3.25;;;;;;;12.92;62.61;94834.34;5133515;27;20030;-71
2022/01/01 11:12:47;;;;;;;7.47;3.05;;;;;;;12.71;62.27;94830.34;5133573;27;20490;-72
2022/01/01 11:15:13;;;;;;;4.97;3.20;;;;;;;12.93;61.67;94838.56;5133514;27;20076;-70
2022/01/01 11:17:40;;;;;;;5.57;3.45;;;;;;;12.98;60.77;94835.09;5133654;27;20038;-71
2022/01/01 11:20:07;;;;;;;4.97;3.08;;;;;;;12.86;60.84;94833.59;5132413;28;20110;-72
2022/01/01 11:22:33;;;;;;;7.93;3.45;;;;;;;12.81;60.92;94839.78;5133347;27;20019;-70